KMKY

Marco Island Airport

Marco Island, Florida, USA
METAR KMKY 181956Z AUTO 27006KT 10SM CLR 24/16 A3009 RMK AO2 SLP190 T02390156
Observed Flight Rules
Jan-18 @ 19:56 UTC (8 minutes ago) Visual Flight Rules
Wind Visibility Clouds
270° at 6 knots 10 miles
  • Clear skies
Temperatures Readings
Current 24°C / 75°F
Dewpoint 16°C / 61°F
Humidity 61%
Altimeter 30.09" Hg
Pressure 1019 hPa
Elevation 2
METAR KMKY 181956Z AUTO 27006KT 10SM CLR 24/16 A3009 RMK AO2 SLP190 T02390156
Observed Flight Rules
Jan-18 @ 19:56 UTC
(8 minutes ago)
VFR
Wind Visibility
270° at 6 knots 10 miles
Clouds
  • Clear skies
Temperature Dewpoint
24°C / 75°F 16°C / 61°F
Humidity Altimeter Pressure
61% 30.09" Hg 1019 hPa